Time;durP1;ratioP1;P1;durP2;ratioP2;P2;SDS_P1;SDS_P2;PMS_P1;PMS_P2;Temp;Humidity;BMP_temperature;BMP_pressure;BME280_temperature;BME280_humidity;BME280_pressure;Samples;Min_cycle;Max_cycle;Signal;HPM_P1;HPM_P2
2023/04/14 00:00:29;;;;;;;10.20;7.17;;;7.90;99.90;;;;;;4965941;28;20740;-76
2023/04/14 00:02:55;;;;;;;10.83;7.03;;;7.90;99.90;;;;;;4964877;28;20288;-79
2023/04/14 00:05:20;;;;;;;8.20;5.87;;;7.90;99.90;;;;;;4949303;28;20724;-72
2023/04/14 00:07:46;;;;;;;8.53;6.47;;;7.90;99.90;;;;;;4967020;28;20206;-72
2023/04/14 00:10:11;;;;;;;12.60;7.13;;;7.80;99.90;;;;;;4966624;28;20684;-72
2023/04/14 00:12:37;;;;;;;13.77;7.20;;;7.80;99.90;;;;;;4966513;28;20212;-73
2023/04/14 00:15:02;;;;;;;9.33;7.40;;;7.90;99.90;;;;;;4966444;28;20570;-71
2023/04/14 00:17:29;;;;;;;11.17;7.63;;;7.90;99.90;;;;;;4966488;28;20259;-71
2023/04/14 00:19:55;;;;;;;10.07;6.60;;;7.90;99.90;;;;;;4967577;28;20236;-70
2023/04/14 00:22:20;;;;;;;10.00;6.50;;;7.90;99.90;;;;;;4968036;28;20668;-72
2023/04/14 00:24:46;;;;;;;10.10;6.30;;;7.90;99.90;;;;;;4969840;28;20192;-73
2023/04/14 00:27:12;;;;;;;7.13;5.90;;;7.90;99.90;;;;;;4967478;28;20201;-73
2023/04/14 00:29:38;;;;;;;8.13;5.47;;;7.90;99.90;;;;;;4964498;28;20205;-72
2023/04/14 00:32:06;;;;;;;9.50;5.97;;;7.90;99.90;;;;;;4967749;28;20789;-72
2023/04/14 00:34:32;;;;;;;8.30;6.53;;;7.90;99.90;;;;;;4968545;28;20601;-84
2023/04/14 00:36:58;;;;;;;9.40;6.23;;;7.90;99.90;;;;;;4969778;28;20204;-84
2023/04/14 00:39:23;;;;;;;6.60;5.10;;;8.00;99.90;;;;;;4968717;28;20707;-84
2023/04/14 00:41:49;;;;;;;9.47;5.67;;;8.00;99.90;;;;;;4969326;28;20232;-85
2023/04/14 00:44:15;;;;;;;10.60;6.53;;;8.00;99.90;;;;;;4969611;28;20206;-75
2023/04/14 00:46:41;;;;;;;12.60;6.63;;;8.00;99.90;;;;;;4967430;28;20197;-73
2023/04/14 00:49:07;;;;;;;11.20;6.43;;;8.00;99.90;;;;;;4966116;28;20948;-73
2023/04/14 00:51:33;;;;;;;10.77;5.73;;;8.00;99.90;;;;;;4966265;28;20240;-74
2023/04/14 00:54:01;;;;;;;8.70;5.50;;;8.00;99.90;;;;;;4970060;28;20209;-72
2023/04/14 00:56:28;;;;;;;8.83;6.13;;;8.10;99.90;;;;;;4963860;28;20250;-72
2023/04/14 00:58:54;;;;;;;10.70;5.90;;;8.10;99.90;;;;;;4970893;28;20209;-74
2023/04/14 01:01:20;;;;;;;5.60;4.60;;;8.10;99.90;;;;;;4966125;28;20297;-74
2023/04/14 01:03:46;;;;;;;7.33;5.63;;;8.10;99.90;;;;;;4968165;28;20284;-73
2023/04/14 01:06:12;;;;;;;7.07;5.17;;;8.20;99.90;;;;;;4967281;28;20198;-73
2023/04/14 01:08:38;;;;;;;10.10;5.57;;;8.20;99.90;;;;;;4970360;28;20595;-73
2023/04/14 01:11:26;;;;;;;7.43;5.50;;;8.20;99.90;;;;;;4967385;28;20296;-73
2023/04/14 01:14:08;;;;;;;6.70;4.93;;;8.30;99.90;;;;;;4966607;28;20214;-73
2023/04/14 01:16:39;;;;;;;7.37;5.83;;;8.20;99.90;;;;;;4967818;28;20682;-73
2023/04/14 01:19:31;;;;;;;10.47;6.03;;;8.30;99.90;;;;;;4976968;28;20215;-73
2023/04/14 01:22:02;;;;;;;7.13;5.10;;;8.30;99.90;;;;;;4970116;28;20215;-72
2023/04/14 01:24:47;;;;;;;5.30;4.80;;;8.30;99.90;;;;;;4976920;28;20299;-73
2023/04/14 01:27:44;;;;;;;5.43;4.67;;;8.20;99.90;;;;;;4975959;28;20211;-72
2023/04/14 01:30:34;;;;;;;7.63;5.07;;;8.20;99.90;;;;;;4976245;28;20209;-72
2023/04/14 01:33:04;;;;;;;8.50;4.60;;;8.20;99.90;;;;;;4964444;28;20239;-73
2023/04/14 01:35:37;;;;;;;9.23;5.40;;;8.10;99.90;;;;;;4966786;28;20602;-73
2023/04/14 01:38:08;;;;;;;9.83;4.83;;;8.00;99.90;;;;;;4971104;28;20935;-73
2023/04/14 01:40:36;;;;;;;8.70;5.23;;;8.00;99.90;;;;;;4975844;28;20224;-73
2023/04/14 01:43:07;;;;;;;5.83;4.17;;;8.00;99.90;;;;;;4967197;28;20192;-73
2023/04/14 01:45:37;;;;;;;5.43;3.80;;;8.00;99.90;;;;;;4965559;28;20201;-73
2023/04/14 01:48:05;;;;;;;6.23;3.87;;;8.00;99.90;;;;;;4966164;28;20991;-72
2023/04/14 01:50:33;;;;;;;8.23;4.03;;;8.00;99.90;;;;;;4971653;28;20243;-72
2023/04/14 01:52:59;;;;;;;4.23;3.50;;;8.10;99.90;;;;;;4967155;28;20206;-72
2023/04/14 01:55:27;;;;;;;7.50;4.47;;;8.10;99.90;;;;;;4967778;28;20224;-73
2023/04/14 01:57:55;;;;;;;10.07;4.10;;;8.10;99.90;;;;;;4969003;28;20899;-71
2023/04/14 02:00:23;;;;;;;5.07;3.33;;;8.10;99.90;;;;;;4971224;28;20600;-72
2023/04/14 02:02:51;;;;;;;4.37;3.80;;;8.10;99.90;;;;;;4972620;28;20209;-73
2023/04/14 02:05:18;;;;;;;5.37;3.70;;;8.10;99.90;;;;;;4972465;28;20201;-73
2023/04/14 02:07:46;;;;;;;3.83;3.47;;;8.10;99.90;;;;;;4967763;28;20667;-74
2023/04/14 02:10:13;;;;;;;4.40;3.57;;;8.10;99.90;;;;;;4973065;28;20737;-73
2023/04/14 02:12:40;;;;;;;6.30;3.67;;;8.10;99.90;;;;;;4967842;28;20264;-74
2023/04/14 02:15:07;;;;;;;5.70;3.20;;;8.10;99.90;;;;;;4970688;28;20212;-72
2023/04/14 02:17:33;;;;;;;3.83;3.27;;;8.10;99.90;;;;;;4976433;28;20292;-73
2023/04/14 02:20:00;;;;;;;7.97;4.40;;;8.10;99.90;;;;;;4965472;28;20226;-73
2023/04/14 02:22:26;;;;;;;5.97;3.43;;;8.10;99.90;;;;;;4968264;28;20242;-73
2023/04/14 02:24:53;;;;;;;4.60;2.80;;;8.20;99.90;;;;;;4970839;28;20236;-73
2023/04/14 02:27:40;;;;;;;6.10;3.70;;;8.20;99.90;;;;;;4967871;28;20208;-73
2023/04/14 02:30:13;;;;;;;4.93;3.40;;;8.20;99.90;;;;;;4967827;28;20267;-74
2023/04/14 02:32:43;;;;;;;3.67;3.00;;;8.30;99.90;;;;;;4969450;28;20296;-73
2023/04/14 02:35:20;;;;;;;3.50;3.20;;;8.30;99.90;;;;;;4969993;28;20434;-73
2023/04/14 02:37:49;;;;;;;7.67;4.10;;;8.30;99.90;;;;;;4967434;28;20287;-73
2023/04/14 02:40:19;;;;;;;4.10;3.77;;;8.30;99.90;;;;;;4969628;28;20255;-73
2023/04/14 02:42:49;;;;;;;5.37;3.93;;;8.30;99.90;;;;;;4969651;28;20206;-73
2023/04/14 02:45:21;;;;;;;8.27;3.53;;;8.30;99.90;;;;;;4969507;28;20305;-73
2023/04/14 02:47:55;;;;;;;5.47;3.87;;;8.40;99.90;;;;;;4966171;28;20666;-73
2023/04/14 02:50:21;;;;;;;6.37;3.87;;;8.30;99.90;;;;;;4970168;28;20315;-74
2023/04/14 02:52:50;;;;;;;3.73;3.17;;;8.40;99.90;;;;;;4969518;28;20220;-73
2023/04/14 02:55:18;;;;;;;4.97;3.40;;;8.30;99.90;;;;;;4969272;28;20288;-73
2023/04/14 02:57:48;;;;;;;10.97;3.77;;;8.30;99.90;;;;;;4969129;28;20221;-73
2023/04/14 03:00:15;;;;;;;4.57;4.07;;;8.30;99.90;;;;;;4972801;28;20236;-73
2023/04/14 03:02:43;;;;;;;6.10;3.80;;;8.30;99.90;;;;;;4969766;28;20217;-72
2023/04/14 03:05:09;;;;;;;5.90;3.90;;;8.30;99.90;;;;;;4965750;28;20300;-73
2023/04/14 03:07:36;;;;;;;4.57;3.53;;;8.30;99.90;;;;;;4968407;28;20216;-73
2023/04/14 03:10:02;;;;;;;4.23;3.80;;;8.30;99.90;;;;;;4970123;28;20755;-73
2023/04/14 03:12:29;;;;;;;6.37;4.10;;;8.20;99.90;;;;;;4970160;28;20211;-73
2023/04/14 03:14:55;;;;;;;3.90;3.50;;;8.30;99.90;;;;;;4967766;28;20205;-72
2023/04/14 03:17:21;;;;;;;4.30;3.60;;;8.30;99.90;;;;;;4968998;28;20241;-72
2023/04/14 03:19:49;;;;;;;7.27;4.40;;;8.30;99.90;;;;;;4968691;28;20748;-73
2023/04/14 03:22:18;;;;;;;5.00;3.77;;;8.30;99.90;;;;;;4968641;28;20203;-74
2023/04/14 03:24:45;;;;;;;7.90;4.60;;;8.30;99.90;;;;;;4967246;28;20235;-73
2023/04/14 03:27:17;;;;;;;5.03;3.60;;;8.30;99.90;;;;;;4969810;28;20253;-74
2023/04/14 03:29:50;;;;;;;7.13;3.70;;;8.30;99.90;;;;;;4969555;28;20216;-74
2023/04/14 03:32:17;;;;;;;5.87;3.50;;;8.30;99.90;;;;;;4952202;28;20716;-75
2023/04/14 03:34:47;;;;;;;6.97;4.23;;;8.30;99.90;;;;;;4969514;28;20568;-73
2023/04/14 03:37:16;;;;;;;5.37;3.83;;;8.30;99.90;;;;;;4966910;28;20818;-74
2023/04/14 03:39:44;;;;;;;5.03;3.37;;;8.30;99.90;;;;;;4972112;28;20213;-73
2023/04/14 03:42:11;;;;;;;4.50;3.80;;;8.30;99.90;;;;;;4963713;28;20201;-74
2023/04/14 03:44:39;;;;;;;5.13;3.87;;;8.30;99.90;;;;;;4969201;28;20240;-73
2023/04/14 03:47:06;;;;;;;7.63;3.80;;;8.30;99.90;;;;;;4969190;28;20659;-72
2023/04/14 03:49:36;;;;;;;5.70;3.87;;;8.40;99.90;;;;;;4951295;28;20628;-73
2023/04/14 03:52:05;;;;;;;6.47;3.73;;;8.40;99.90;;;;;;4968641;28;20605;-73
2023/04/14 03:54:32;;;;;;;7.87;3.87;;;8.40;99.90;;;;;;4968170;28;20208;-74
2023/04/14 03:56:59;;;;;;;6.10;3.80;;;8.40;99.90;;;;;;4971316;28;20227;-73
2023/04/14 03:59:26;;;;;;;4.13;3.73;;;8.40;99.90;;;;;;4964619;28;20212;-72
2023/04/14 04:01:53;;;;;;;6.50;3.70;;;8.50;99.90;;;;;;4966840;28;20276;-72
2023/04/14 04:04:19;;;;;;;5.63;4.17;;;8.60;99.90;;;;;;4968821;28;20197;-72
2023/04/14 04:06:45;;;;;;;5.63;3.60;;;8.60;99.90;;;;;;4968707;28;20213;-72
2023/04/14 04:09:16;;;;;;;4.77;3.77;;;8.50;99.90;;;;;;4968797;28;20197;-73
2023/04/14 04:11:45;;;;;;;6.53;3.80;;;8.50;99.90;;;;;;4966359;28;20572;-73
2023/04/14 04:14:13;;;;;;;7.13;4.37;;;8.40;99.90;;;;;;4968898;28;20231;-73
2023/04/14 04:16:41;;;;;;;7.30;3.70;;;8.30;99.90;;;;;;4967994;28;20221;-73
2023/04/14 04:19:08;;;;;;;7.17;4.90;;;8.40;99.90;;;;;;4967500;28;20205;-73
2023/04/14 04:21:38;;;;;;;8.13;4.77;;;8.30;99.90;;;;;;4966523;28;20213;-73
2023/04/14 04:24:06;;;;;;;6.93;5.03;;;8.40;99.90;;;;;;4971742;28;20203;-72
2023/04/14 04:26:33;;;;;;;5.87;4.27;;;8.40;99.90;;;;;;4966247;28;20231;-73
2023/04/14 04:28:59;;;;;;;9.00;4.77;;;8.40;99.90;;;;;;4977854;28;20200;-73
2023/04/14 04:31:26;;;;;;;7.50;4.30;;;8.50;99.90;;;;;;4971755;28;20198;-73
2023/04/14 04:33:52;;;;;;;4.33;3.93;;;8.40;99.90;;;;;;4978422;28;20228;-72
2023/04/14 04:36:18;;;;;;;4.67;4.10;;;8.50;99.90;;;;;;4978457;28;20923;-80
2023/04/14 04:38:43;;;;;;;10.57;4.50;;;8.50;99.90;;;;;;4969590;28;20236;-73
2023/04/14 04:41:26;;;;;;;4.07;3.77;;;8.50;99.90;;;;;;4975089;28;20221;-73
2023/04/14 04:43:51;;;;;;;4.23;3.60;;;8.50;99.90;;;;;;4977736;28;20205;-72
2023/04/14 04:46:45;;;;;;;3.97;3.27;;;8.50;99.90;;;;;;4970901;28;20701;-72
2023/04/14 04:49:10;;;;;;;6.23;4.33;;;8.50;99.90;;;;;;4977220;28;20729;-73
2023/04/14 04:51:35;;;;;;;4.77;4.20;;;8.50;99.90;;;;;;4977064;28;20209;-72
2023/04/14 04:54:01;;;;;;;4.63;3.90;;;8.50;99.90;;;;;;4977281;28;20197;-72
2023/04/14 04:56:26;;;;;;;5.43;4.57;;;8.50;99.90;;;;;;4975649;28;20619;-71
2023/04/14 04:58:52;;;;;;;7.17;4.37;;;8.50;99.90;;;;;;4976035;28;20292;-72
2023/04/14 05:01:18;;;;;;;8.57;6.27;;;8.60;99.90;;;;;;4976968;28;20216;-71
2023/04/14 05:03:45;;;;;;;5.67;4.67;;;8.60;99.90;;;;;;4977006;28;20874;-72
2023/04/14 05:06:11;;;;;;;4.30;3.90;;;8.60;99.90;;;;;;4977271;28;20280;-72
2023/04/14 05:08:36;;;;;;;3.97;3.40;;;8.70;99.90;;;;;;4977654;28;20194;-72
2023/04/14 05:11:02;;;;;;;8.07;4.03;;;8.70;99.90;;;;;;4975820;28;20680;-72
2023/04/14 05:13:27;;;;;;;7.30;4.90;;;8.80;99.90;;;;;;4972578;28;20209;-73
2023/04/14 05:16:02;;;;;;;4.47;4.07;;;8.80;99.90;;;;;;4976367;28;20656;-73
2023/04/14 05:18:27;;;;;;;6.63;4.47;;;8.80;99.90;;;;;;4976901;28;20231;-73
2023/04/14 05:20:53;;;;;;;8.20;4.67;;;8.80;99.90;;;;;;4974956;28;20580;-72
2023/04/14 05:23:18;;;;;;;5.27;4.73;;;8.80;99.90;;;;;;4976931;28;20253;-72
2023/04/14 05:25:44;;;;;;;8.67;5.20;;;8.80;99.90;;;;;;4977063;28;20207;-71
2023/04/14 05:28:10;;;;;;;10.33;5.13;;;8.90;99.90;;;;;;4976587;28;20206;-72
2023/04/14 05:30:35;;;;;;;6.47;4.83;;;8.90;99.90;;;;;;4977544;28;20199;-72
2023/04/14 05:33:01;;;;;;;6.73;4.80;;;9.00;99.90;;;;;;4985436;28;20244;-72
2023/04/14 05:35:26;;;;;;;10.47;4.80;;;9.10;99.90;;;;;;4978974;28;20210;-73
2023/04/14 05:37:52;;;;;;;6.27;5.10;;;9.00;99.90;;;;;;4980532;28;20198;-73
2023/04/14 05:40:19;;;;;;;5.40;4.33;;;9.00;99.90;;;;;;4980583;28;20295;-73
2023/04/14 05:42:44;;;;;;;9.57;4.37;;;9.00;99.90;;;;;;4980803;28;20279;-73
2023/04/14 05:45:10;;;;;;;4.73;4.17;;;9.10;99.90;;;;;;4980899;28;21014;-73
2023/04/14 05:47:36;;;;;;;6.50;5.00;;;9.10;99.90;;;;;;4980570;28;20237;-73
2023/04/14 05:50:02;;;;;;;6.07;4.30;;;9.20;99.90;;;;;;4979225;28;20201;-72
2023/04/14 05:52:28;;;;;;;5.53;4.67;;;9.20;99.90;;;;;;4982816;28;20236;-73
2023/04/14 05:54:54;;;;;;;5.13;4.70;;;9.30;99.90;;;;;;4977287;28;20236;-73
2023/04/14 05:57:20;;;;;;;5.40;4.73;;;9.30;99.90;;;;;;4980505;28;20203;-73
2023/04/14 05:59:45;;;;;;;5.40;4.57;;;9.30;99.90;;;;;;4976384;28;20244;-74
2023/04/14 06:02:11;;;;;;;5.43;3.83;;;9.30;99.90;;;;;;4978515;28;20712;-73
2023/04/14 06:04:36;;;;;;;8.77;4.30;;;9.30;99.90;;;;;;4980050;28;20320;-74
2023/04/14 06:07:02;;;;;;;7.63;4.67;;;9.30;99.90;;;;;;4979774;28;20688;-73
2023/04/14 06:09:27;;;;;;;7.27;5.10;;;9.40;99.90;;;;;;4979782;28;20631;-72
2023/04/14 06:11:52;;;;;;;5.87;4.43;;;9.30;99.90;;;;;;4980124;28;20285;-73
2023/04/14 06:14:18;;;;;;;11.87;4.57;;;9.40;99.90;;;;;;4976041;28;20238;-73
2023/04/14 06:16:45;;;;;;;5.80;4.80;;;9.50;99.90;;;;;;4978016;28;20207;-73
2023/04/14 06:19:10;;;;;;;5.03;4.53;;;9.50;99.90;;;;;;4979024;28;20199;-74
2023/04/14 06:21:35;;;;;;;6.30;4.93;;;9.50;99.90;;;;;;4977355;28;20986;-74
2023/04/14 06:24:01;;;;;;;6.90;4.53;;;9.60;99.90;;;;;;4981969;28;20246;-73
2023/04/14 06:26:26;;;;;;;7.27;4.93;;;9.60;99.90;;;;;;4979442;28;20289;-73
2023/04/14 06:28:52;;;;;;;5.57;4.90;;;9.60;99.90;;;;;;4977871;28;20221;-74
2023/04/14 06:31:18;;;;;;;5.10;4.40;;;9.70;99.90;;;;;;4978790;28;20230;-74
2023/04/14 06:33:43;;;;;;;6.40;4.40;;;9.70;99.90;;;;;;4969043;28;20228;-74
2023/04/14 06:36:09;;;;;;;5.13;4.60;;;9.80;99.90;;;;;;4971787;28;20213;-73
2023/04/14 06:38:34;;;;;;;6.20;4.70;;;9.80;99.90;;;;;;4966844;28;20293;-73
2023/04/14 06:41:01;;;;;;;6.07;4.87;;;9.80;99.90;;;;;;4969609;28;20238;-71
2023/04/14 06:43:27;;;;;;;5.07;4.53;;;9.80;99.90;;;;;;4968059;28;20227;-71
2023/04/14 06:45:53;;;;;;;7.73;4.77;;;9.90;99.90;;;;;;4970298;28;20215;-71
2023/04/14 06:48:19;;;;;;;4.47;4.00;;;10.00;99.90;;;;;;4970030;28;20204;-73
2023/04/14 06:50:52;;;;;;;4.97;4.20;;;9.90;99.90;;;;;;4970375;28;20576;-73
2023/04/14 06:53:17;;;;;;;7.43;5.50;;;10.00;99.90;;;;;;4969435;28;20848;-72
2023/04/14 06:55:43;;;;;;;8.37;4.43;;;10.00;99.90;;;;;;4969056;28;20232;-72
2023/04/14 06:58:08;;;;;;;7.37;5.03;;;10.00;99.90;;;;;;4968970;28;20194;-73
2023/04/14 07:00:33;;;;;;;9.10;5.50;;;10.10;99.90;;;;;;4969101;28;20250;-72
2023/04/14 07:02:59;;;;;;;11.57;5.23;;;10.10;99.90;;;;;;4968068;28;20189;-73
2023/04/14 07:05:25;;;;;;;9.50;5.40;;;10.10;99.90;;;;;;4969759;28;20694;-74
2023/04/14 07:07:50;;;;;;;13.13;4.97;;;10.10;99.90;;;;;;4969743;28;20202;-73
2023/04/14 07:10:16;;;;;;;8.97;4.77;;;10.20;99.90;;;;;;4970194;28;20566;-73
2023/04/14 07:12:41;;;;;;;5.73;4.53;;;10.20;99.90;;;;;;4969732;28;20230;-74
2023/04/14 07:15:07;;;;;;;7.90;4.97;;;10.30;99.90;;;;;;4967630;28;20229;-75
2023/04/14 07:17:35;;;;;;;6.53;4.70;;;10.30;99.90;;;;;;4969211;28;20259;-74
2023/04/14 07:20:00;;;;;;;4.47;3.70;;;10.40;99.90;;;;;;4968270;28;20221;-75
2023/04/14 07:22:26;;;;;;;8.10;4.73;;;10.40;99.90;;;;;;4968522;28;20209;-74
2023/04/14 07:24:52;;;;;;;6.53;5.33;;;10.40;99.90;;;;;;4969038;28;20207;-75
2023/04/14 07:27:18;;;;;;;6.23;4.60;;;10.40;99.90;;;;;;4969903;28;20207;-79
2023/04/14 07:29:43;;;;;;;6.73;4.57;;;10.40;99.90;;;;;;4975454;28;20209;-79
2023/04/14 07:32:10;;;;;;;7.20;4.63;;;10.40;99.90;;;;;;4978951;28;20237;-79
2023/04/14 07:34:36;;;;;;;5.17;4.33;;;10.40;99.90;;;;;;4980881;28;20303;-78
2023/04/14 07:37:01;;;;;;;8.10;5.67;;;10.50;99.90;;;;;;4976104;28;20207;-78
2023/04/14 07:39:27;;;;;;;5.50;4.90;;;10.50;99.90;;;;;;4979249;28;20280;-76
2023/04/14 07:41:52;;;;;;;8.50;4.80;;;10.50;99.90;;;;;;4976904;28;20678;-84
2023/04/14 07:44:18;;;;;;;6.57;4.67;;;10.50;99.90;;;;;;4981303;28;20237;-77
2023/04/14 07:46:43;;;;;;;5.97;4.70;;;10.50;99.90;;;;;;4975957;28;20210;-84
2023/04/14 07:49:08;;;;;;;5.40;4.90;;;10.60;99.90;;;;;;4983506;28;20225;-79
2023/04/14 07:51:34;;;;;;;7.93;5.63;;;10.70;99.90;;;;;;4970125;28;20211;-78
2023/04/14 07:53:59;;;;;;;7.87;4.57;;;10.80;99.90;;;;;;4969070;28;20193;-77
2023/04/14 07:56:25;;;;;;;6.07;5.20;;;10.80;99.90;;;;;;4966884;28;20197;-84
2023/04/14 07:58:51;;;;;;;6.17;4.90;;;10.70;99.90;;;;;;4967832;28;20207;-78
2023/04/14 08:01:16;;;;;;;5.60;4.70;;;10.80;99.90;;;;;;4968454;28;20232;-83
2023/04/14 08:03:41;;;;;;;4.43;3.83;;;10.70;99.90;;;;;;4967749;28;20212;-66
2023/04/14 08:06:07;;;;;;;5.43;4.27;;;10.80;99.90;;;;;;4969556;28;20591;-66
2023/04/14 08:08:34;;;;;;;6.37;3.83;;;10.70;99.90;;;;;;4967212;28;20206;-66
2023/04/14 08:11:00;;;;;;;4.90;3.57;;;10.60;99.90;;;;;;4967232;28;20207;-66
2023/04/14 08:13:25;;;;;;;5.77;3.27;;;10.50;99.90;;;;;;4966707;28;20506;-64
2023/04/14 08:15:50;;;;;;;3.87;3.50;;;10.50;99.90;;;;;;4975520;28;20202;-66
2023/04/14 08:18:16;;;;;;;5.23;3.73;;;10.50;99.90;;;;;;4977996;28;20764;-68
2023/04/14 08:20:42;;;;;;;5.03;3.60;;;10.40;99.90;;;;;;4969087;28;20215;-65
2023/04/14 08:23:07;;;;;;;6.20;3.80;;;10.40;99.90;;;;;;4966760;28;20286;-66
2023/04/14 08:25:33;;;;;;;5.77;3.63;;;10.40;99.90;;;;;;4967021;28;20200;-66
2023/04/14 08:27:58;;;;;;;4.97;3.97;;;10.30;99.90;;;;;;4970945;28;20203;-66
2023/04/14 08:30:25;;;;;;;5.10;3.67;;;10.20;99.90;;;;;;4965747;28;20225;-65
2023/04/14 08:32:50;;;;;;;3.63;3.33;;;10.10;99.90;;;;;;4963890;28;20225;-65
2023/04/14 08:35:17;;;;;;;3.87;3.57;;;10.00;99.90;;;;;;4968266;28;20210;-66
2023/04/14 08:37:42;;;;;;;6.30;3.90;;;10.10;99.90;;;;;;4967672;28;20307;-68
2023/04/14 08:40:10;;;;;;;7.37;3.90;;;10.00;99.90;;;;;;4965614;28;20688;-65
2023/04/14 08:42:35;;;;;;;3.37;2.97;;;10.00;99.90;;;;;;4967686;28;20197;-66
2023/04/14 08:45:01;;;;;;;6.07;4.53;;;10.00;99.90;;;;;;4965891;28;20260;-67
2023/04/14 08:47:31;;;;;;;5.40;4.30;;;9.90;99.90;;;;;;4967542;28;20748;-66
2023/04/14 08:50:06;;;;;;;6.73;3.93;;;10.00;99.90;;;;;;4969680;28;20688;-66
2023/04/14 08:52:34;;;;;;;4.40;3.90;;;10.00;99.90;;;;;;4964026;28;20203;-66
2023/04/14 08:55:01;;;;;;;6.30;3.97;;;10.10;99.90;;;;;;4968541;28;20193;-66
2023/04/14 08:57:30;;;;;;;5.63;4.30;;;10.00;99.90;;;;;;4969917;28;20303;-68
2023/04/14 09:00:03;;;;;;;4.53;4.13;;;10.00;99.90;;;;;;4968838;28;20237;-68
2023/04/14 09:02:30;;;;;;;5.87;3.20;;;10.00;99.90;;;;;;4968793;28;20683;-67
2023/04/14 09:04:56;;;;;;;4.10;3.63;;;9.90;99.90;;;;;;4967317;28;20203;-65
2023/04/14 09:07:21;;;;;;;3.80;3.50;;;9.70;99.90;;;;;;4970024;28;20229;-65
2023/04/14 09:09:47;;;;;;;3.03;2.83;;;9.60;99.90;;;;;;4965001;28;20204;-65
2023/04/14 09:12:15;;;;;;;3.70;3.40;;;9.50;99.90;;;;;;4968169;28;20199;-68
2023/04/14 09:14:43;;;;;;;4.63;3.60;;;9.60;99.90;;;;;;4966242;28;20253;-64
2023/04/14 09:17:09;;;;;;;5.40;3.23;;;9.60;99.90;;;;;;4966325;28;20671;-68
2023/04/14 09:19:35;;;;;;;4.20;3.53;;;9.60;99.90;;;;;;4967174;28;20576;-67
2023/04/14 09:22:01;;;;;;;4.53;3.07;;;9.70;99.90;;;;;;4974770;28;20758;-67
2023/04/14 09:24:28;;;;;;;4.30;3.27;;;9.70;99.90;;;;;;4967368;28;20198;-66
2023/04/14 09:26:54;;;;;;;5.23;3.00;;;9.70;99.90;;;;;;4966977;28;20328;-66
2023/04/14 09:29:20;;;;;;;4.47;3.53;;;9.70;99.90;;;;;;4969660;28;20194;-65
2023/04/14 09:31:46;;;;;;;3.47;3.17;;;9.70;99.90;;;;;;4966677;28;20200;-66
2023/04/14 09:34:16;;;;;;;5.17;3.17;;;9.70;99.90;;;;;;4960828;28;20712;-64
2023/04/14 09:37:01;;;;;;;3.77;3.10;;;9.70;99.90;;;;;;4967054;28;20212;-64
2023/04/14 09:39:27;;;;;;;3.43;3.13;;;9.70;99.90;;;;;;4973868;28;20703;-65
2023/04/14 09:41:52;;;;;;;3.63;3.33;;;9.80;99.90;;;;;;4976541;28;20200;-65
2023/04/14 09:44:18;;;;;;;5.03;3.30;;;9.90;99.90;;;;;;4958937;28;20257;-65
2023/04/14 09:47:04;;;;;;;3.10;2.90;;;10.00;99.90;;;;;;4976566;28;20214;-63
2023/04/14 09:49:30;;;;;;;6.00;3.70;;;10.00;99.90;;;;;;4976511;28;20257;-64
2023/04/14 09:52:07;;;;;;;4.83;4.33;;;10.10;99.90;;;;;;4976127;28;20218;-67
2023/04/14 09:54:34;;;;;;;3.67;3.37;;;10.20;99.90;;;;;;4975524;28;20206;-68
2023/04/14 09:57:00;;;;;;;3.50;3.20;;;10.40;99.90;;;;;;4967660;28;20210;-66
2023/04/14 09:59:37;;;;;;;3.23;2.77;;;10.40;99.90;;;;;;4976513;28;20213;-66
2023/04/14 10:02:07;;;;;;;3.27;3.00;;;10.30;99.90;;;;;;4974837;28;20687;-66
2023/04/14 10:04:33;;;;;;;3.67;3.40;;;10.40;99.90;;;;;;4971765;28;20210;-67
2023/04/14 10:06:59;;;;;;;5.27;3.30;;;10.30;99.90;;;;;;4976181;28;20198;-68
2023/04/14 10:09:27;;;;;;;5.57;4.23;;;10.20;99.90;;;;;;4965039;28;20907;-69
2023/04/14 10:12:12;;;;;;;3.00;2.80;;;10.30;99.90;;;;;;4967574;28;20208;-66
2023/04/14 10:14:39;;;;;;;4.53;3.83;;;10.30;99.90;;;;;;4964618;28;20687;-66
2023/04/14 10:17:06;;;;;;;3.43;3.10;;;10.30;99.90;;;;;;4965466;28;20305;-66
2023/04/14 10:19:31;;;;;;;3.47;3.17;;;10.30;99.90;;;;;;4969481;28;20605;-65
2023/04/14 10:21:58;;;;;;;4.17;3.30;;;10.10;99.90;;;;;;4965281;28;20198;-65
2023/04/14 10:24:24;;;;;;;3.17;2.97;;;10.10;99.90;;;;;;4972186;28;20208;-67
2023/04/14 10:26:50;;;;;;;4.80;3.20;;;9.90;99.90;;;;;;4967274;28;20202;-66
2023/04/14 10:29:16;;;;;;;5.30;3.53;;;10.00;99.90;;;;;;4968862;28;20229;-65
2023/04/14 10:31:58;;;;;;;3.20;2.90;;;10.10;99.90;;;;;;4967581;28;21004;-66
2023/04/14 10:34:25;;;;;;;3.63;3.30;;;10.10;99.90;;;;;;4972839;28;20222;-67
2023/04/14 10:36:51;;;;;;;4.77;3.87;;;10.00;99.90;;;;;;4957322;28;20202;-67
2023/04/14 10:39:24;;;;;;;5.73;3.20;;;10.00;99.90;;;;;;4966679;28;20207;-68
2023/04/14 10:41:51;;;;;;;5.67;3.17;;;9.90;99.90;;;;;;4969777;28;20310;-69
2023/04/14 10:44:28;;;;;;;4.53;2.53;;;9.90;99.90;;;;;;4973835;28;20528;-68
2023/04/14 10:46:55;;;;;;;4.13;3.03;;;9.80;99.90;;;;;;4971825;28;20263;-67
2023/04/14 10:49:35;;;;;;;6.87;4.77;;;9.70;99.90;;;;;;4966836;28;20616;-67
2023/04/14 10:52:15;;;;;;;3.50;3.07;;;9.70;99.90;;;;;;4966736;28;20194;-65
2023/04/14 10:55:07;;;;;;;3.03;2.63;;;9.70;99.90;;;;;;4966719;28;20666;-64
2023/04/14 10:57:40;;;;;;;4.33;3.20;;;9.70;99.90;;;;;;4966202;28;20699;-66
2023/04/14 11:00:28;;;;;;;3.80;2.93;;;9.60;99.90;;;;;;4968764;28;20213;-66
2023/04/14 11:03:11;;;;;;;3.50;3.20;;;9.60;99.90;;;;;;4976805;28;20207;-66
2023/04/14 11:05:52;;;;;;;5.70;3.90;;;9.60;99.90;;;;;;4969596;28;20608;-65
2023/04/14 11:08:25;;;;;;;5.67;3.80;;;9.50;99.90;;;;;;4968586;28;20573;-66
2023/04/14 11:11:05;;;;;;;5.33;3.83;;;9.50;99.90;;;;;;4967209;28;20201;-66
2023/04/14 11:13:33;;;;;;;5.07;3.23;;;9.40;99.90;;;;;;4969594;28;20211;-65
2023/04/14 11:16:03;;;;;;;6.53;4.10;;;9.40;99.90;;;;;;4967788;28;20630;-64
2023/04/14 11:18:29;;;;;;;7.90;4.40;;;9.40;99.90;;;;;;4968226;28;20705;-65
2023/04/14 11:21:03;;;;;;;4.20;3.87;;;9.50;99.90;;;;;;4965582;28;20217;-66
2023/04/14 11:23:29;;;;;;;4.37;3.93;;;9.50;99.90;;;;;;4968310;28;20207;-65
2023/04/14 11:25:56;;;;;;;4.20;3.90;;;9.50;99.90;;;;;;4966896;28;20712;-66
2023/04/14 11:28:34;;;;;;;4.83;3.43;;;9.40;99.90;;;;;;4965890;28;20225;-66
2023/04/14 11:31:01;;;;;;;5.10;3.37;;;9.40;99.90;;;;;;4968221;28;20237;-67
2023/04/14 11:33:31;;;;;;;4.03;3.00;;;9.20;99.90;;;;;;4972208;28;20555;-66
2023/04/14 11:35:57;;;;;;;4.67;3.30;;;9.10;99.90;;;;;;4967954;28;20293;-64
2023/04/14 11:38:23;;;;;;;4.57;2.90;;;9.10;99.90;;;;;;4966483;28;20667;-66
2023/04/14 11:40:52;;;;;;;3.17;2.93;;;9.10;99.90;;;;;;4967049;28;20229;-88
2023/04/14 11:43:19;;;;;;;4.00;2.80;;;9.00;99.90;;;;;;4974204;28;20204;-82
2023/04/14 11:45:46;;;;;;;3.47;3.03;;;9.00;99.90;;;;;;4978812;28;20283;-76
2023/04/14 11:48:14;;;;;;;3.83;2.83;;;9.00;99.90;;;;;;4976325;28;20253;-75
2023/04/14 11:50:41;;;;;;;4.13;3.73;;;8.90;99.90;;;;;;4978356;28;20238;-79
2023/04/14 11:53:08;;;;;;;4.47;2.90;;;8.90;99.90;;;;;;4977641;28;20758;-79
2023/04/14 11:55:34;;;;;;;3.43;3.13;;;8.90;99.90;;;;;;4978001;28;20205;-81
2023/04/14 11:58:00;;;;;;;3.43;3.13;;;9.00;99.90;;;;;;4979248;28;20759;-83
2023/04/14 12:00:26;;;;;;;2.83;2.63;;;9.00;99.90;;;;;;4974336;28;20698;-84
2023/04/14 12:02:52;;;;;;;3.93;2.60;;;9.00;99.90;;;;;;4970921;28;20204;-79
2023/04/14 12:05:24;;;;;;;2.63;2.40;;;9.00;99.90;;;;;;4966030;28;20350;-76
2023/04/14 12:07:56;;;;;;;5.90;3.57;;;9.00;99.90;;;;;;4967894;28;20236;-82
2023/04/14 12:10:22;;;;;;;4.27;3.20;;;9.10;99.90;;;;;;4966543;28;20213;-76
2023/04/14 12:12:47;;;;;;;5.03;2.80;;;9.20;99.90;;;;;;4972175;28;20218;-77
2023/04/14 12:15:13;;;;;;;2.80;2.43;;;9.20;99.90;;;;;;4978306;28;20327;-76
2023/04/14 12:17:40;;;;;;;3.47;2.70;;;9.10;99.90;;;;;;4975233;28;20713;-77
2023/04/14 12:20:13;;;;;;;3.20;2.90;;;9.20;99.90;;;;;;4966464;28;20225;-77
2023/04/14 12:22:38;;;;;;;5.20;2.93;;;9.20;99.90;;;;;;4974561;28;20208;-75
2023/04/14 12:25:10;;;;;;;3.77;2.90;;;9.30;99.90;;;;;;4969300;28;20208;-72
2023/04/14 12:27:36;;;;;;;3.57;2.80;;;9.20;99.90;;;;;;4968701;28;20382;-70
2023/04/14 12:30:01;;;;;;;3.40;3.00;;;9.20;99.90;;;;;;4980097;28;20304;-80
2023/04/14 12:32:38;;;;;;;3.70;2.97;;;9.10;99.90;;;;;;4973739;28;20225;-79
2023/04/14 12:35:04;;;;;;;5.40;2.93;;;9.00;99.90;;;;;;4965027;28;20297;-65
2023/04/14 12:37:30;;;;;;;5.43;3.63;;;9.00;99.90;;;;;;4964251;28;20333;-66
2023/04/14 12:39:58;;;;;;;5.03;3.17;;;8.90;99.90;;;;;;4967613;28;20268;-65
2023/04/14 12:42:41;;;;;;;3.37;3.03;;;8.90;99.90;;;;;;4964986;28;20532;-66
2023/04/14 12:45:08;;;;;;;5.43;3.77;;;8.90;99.90;;;;;;4964778;28;20296;-67
2023/04/14 12:47:34;;;;;;;4.73;3.70;;;8.90;99.90;;;;;;4965561;28;20534;-75
2023/04/14 12:50:20;;;;;;;4.10;3.80;;;8.90;99.90;;;;;;4964460;28;20271;-76
2023/04/14 12:52:45;;;;;;;4.23;3.80;;;9.00;99.90;;;;;;4968154;28;20260;-81
2023/04/14 12:55:22;;;;;;;4.80;4.30;;;9.10;99.90;;;;;;4972582;28;20207;-79
2023/04/14 12:58:02;;;;;;;4.10;3.00;;;9.10;99.90;;;;;;4969017;28;20294;-83